Time;durP1;ratioP1;P1;durP2;ratioP2;P2;SDS_P1;SDS_P2;PMS_P1;PMS_P2;Temp;Humidity;BMP_temperature;BMP_pressure;BME280_temperature;BME280_humidity;BME280_pressure;Samples;Min_cycle;Max_cycle;Signal;HPM_P1;HPM_P2
2021/06/15 00:00:49;;;;;;;10.00;5.75;;;;;;;17.97;100.00;100361.70;1651991;85;21028;-86
2021/06/15 00:03:16;;;;;;;16.73;6.65;;;;;;;17.98;100.00;100363.43;1654416;83;26160;-88
2021/06/15 00:05:44;;;;;;;11.28;6.50;;;;;;;17.99;100.00;100357.53;1663780;85;21069;-86
2021/06/15 00:08:10;;;;;;;11.10;7.00;;;;;;;17.99;100.00;100366.52;1650525;84;21120;-86
2021/06/15 00:10:37;;;;;;;12.35;6.22;;;;;;;18.01;100.00;100368.66;1655617;85;21388;-86
2021/06/15 00:13:04;;;;;;;15.78;5.90;;;;;;;18.03;100.00;100361.78;1619250;87;21094;-86
2021/06/15 00:15:30;;;;;;;11.95;5.47;;;;;;;18.02;100.00;100358.22;1624634;87;21113;-86
2021/06/15 00:17:57;;;;;;;8.58;6.58;;;;;;;18.01;100.00;100344.25;1654877;85;21068;-86
2021/06/15 00:20:24;;;;;;;12.85;7.60;;;;;;;17.99;100.00;100349.39;1655402;85;21167;-85
2021/06/15 00:22:50;;;;;;;11.78;7.55;;;;;;;17.97;100.00;100346.78;1635390;87;21929;-86
2021/06/15 00:25:17;;;;;;;12.37;8.70;;;;;;;17.96;100.00;100341.48;1633538;87;21100;-85
2021/06/15 00:27:45;;;;;;;10.25;6.53;;;;;;;17.94;100.00;100355.14;1662392;85;21100;-84
2021/06/15 00:30:15;;;;;;;16.30;7.62;;;;;;;17.91;100.00;100354.02;1617009;86;21387;-85
2021/06/15 00:32:41;;;;;;;23.73;9.25;;;;;;;17.89;100.00;100349.19;1635381;85;21124;-85
2021/06/15 00:35:09;;;;;;;12.58;7.80;;;;;;;17.86;100.00;100345.35;1635657;85;21298;-85
2021/06/15 00:37:35;;;;;;;17.10;7.47;;;;;;;17.84;100.00;100341.38;1666378;85;21163;-85
2021/06/15 00:40:03;;;;;;;12.47;7.12;;;;;;;17.82;100.00;100341.13;1675165;85;21657;-85
2021/06/15 00:42:31;;;;;;;17.00;6.62;;;;;;;17.80;100.00;100340.38;1670875;85;21076;-86
2021/06/15 00:44:57;;;;;;;14.10;8.53;;;;;;;17.79;100.00;100345.39;1650425;85;21152;-86
2021/06/15 00:47:24;;;;;;;12.73;8.58;;;;;;;17.78;100.00;100341.83;1672177;85;21137;-86
2021/06/15 00:49:54;;;;;;;20.40;8.38;;;;;;;17.78;100.00;100335.05;1673035;85;21047;-86
2021/06/15 00:52:21;;;;;;;14.63;7.30;;;;;;;17.76;100.00;100336.51;1670865;85;21151;-86
2021/06/15 00:54:49;;;;;;;18.60;7.12;;;;;;;17.76;100.00;100331.08;1692916;83;22424;-85
2021/06/15 00:57:17;;;;;;;17.95;6.05;;;;;;;17.76;100.00;100333.80;1686816;82;21196;-85
2021/06/15 00:59:45;;;;;;;11.65;5.83;;;;;;;17.78;100.00;100332.81;1692991;82;21127;-86
2021/06/15 01:02:12;;;;;;;13.58;6.00;;;;;;;17.76;100.00;100334.30;1652914;84;29214;-85
2021/06/15 01:04:39;;;;;;;12.82;5.25;;;;;;;17.76;100.00;100335.66;1669107;84;21518;-86
2021/06/15 01:07:29;;;;;;;16.37;5.90;;;;;;;17.75;100.00;100328.00;1665559;85;21006;-86
2021/06/15 01:10:20;;;;;;;17.95;5.87;;;;;;;17.76;100.00;100337.02;1657906;85;21056;-86
2021/06/15 01:13:26;;;;;;;12.47;6.20;;;;;;;17.75;100.00;100341.55;1666243;84;21974;-86
2021/06/15 01:16:09;;;;;;;16.35;5.95;;;;;;;17.74;100.00;100333.05;1669850;84;21124;-85
2021/06/15 01:18:40;;;;;;;14.07;6.42;;;;;;;17.75;100.00;100327.14;1672494;84;21693;-85
2021/06/15 01:21:10;;;;;;;19.57;6.00;;;;;;;17.78;100.00;100335.53;1640104;85;21132;-85
2021/06/15 01:23:54;;;;;;;9.73;5.95;;;;;;;17.79;100.00;100333.19;1665741;85;21503;-86
2021/06/15 01:27:02;;;;;;;18.45;7.30;;;;;;;17.78;100.00;100335.53;1665104;83;21327;-85
2021/06/15 01:29:38;;;;;;;14.40;5.75;;;;;;;17.76;100.00;100340.58;1670079;83;21187;-86
2021/06/15 01:32:24;;;;;;;17.50;6.00;;;;;;;17.76;100.00;100343.79;1638252;86;21092;-86
2021/06/15 01:34:52;;;;;;;14.20;5.87;;;;;;;17.79;100.00;100337.27;1632293;86;21550;-86
2021/06/15 01:37:23;;;;;;;16.35;6.00;;;;;;;17.79;100.00;100329.13;1621655;86;21026;-84
2021/06/15 01:39:56;;;;;;;8.15;5.75;;;;;;;17.79;100.00;100324.59;1646171;85;21125;-86
2021/06/15 01:42:33;;;;;;;19.67;5.87;;;;;;;17.82;100.00;100338.42;1626219;86;21025;-85
2021/06/15 01:45:13;;;;;;;20.17;5.90;;;;;;;17.83;100.00;100338.80;1630500;86;21021;-86
2021/06/15 01:47:41;;;;;;;16.52;5.95;;;;;;;17.83;100.00;100334.22;1631699;86;21029;-86
2021/06/15 01:50:09;;;;;;;13.03;5.10;;;;;;;17.86;100.00;100335.86;1608086;87;21081;-84
2021/06/15 01:52:38;;;;;;;11.22;5.80;;;;;;;17.87;100.00;100333.02;1629277;85;21143;-85
2021/06/15 01:55:07;;;;;;;11.53;5.33;;;;;;;17.91;100.00;100336.39;1599278;86;21120;-85
2021/06/15 01:57:37;;;;;;;13.60;6.15;;;;;;;17.93;100.00;100341.20;1602354;87;21131;-85
2021/06/15 02:00:11;;;;;;;8.70;5.42;;;;;;;17.96;100.00;100340.98;1660529;84;21130;-84
2021/06/15 02:02:41;;;;;;;14.05;5.95;;;;;;;17.98;100.00;100343.59;1639101;86;31573;-85
2021/06/15 02:05:10;;;;;;;19.60;5.90;;;;;;;17.95;100.00;100347.38;1644697;85;21119;-85
2021/06/15 02:07:40;;;;;;;9.63;6.10;;;;;;;17.93;100.00;100363.41;1618549;86;21007;-85
2021/06/15 02:10:11;;;;;;;12.70;5.67;;;;;;;17.88;100.00;100363.22;1666882;85;21076;-85
2021/06/15 02:12:53;;;;;;;24.55;6.05;;;;;;;17.86;100.00;100363.83;1659628;85;21155;-85
2021/06/15 02:15:40;;;;;;;19.15;6.12;;;;;;;17.84;100.00;100369.00;1656627;85;21176;-85
2021/06/15 02:18:23;;;;;;;17.30;5.70;;;;;;;17.82;100.00;100360.97;1638171;85;21978;-85
2021/06/15 02:20:56;;;;;;;11.20;5.47;;;;;;;17.84;100.00;100354.09;1657024;85;21072;-85
2021/06/15 02:23:23;;;;;;;14.83;5.35;;;;;;;17.84;100.00;100354.09;1618120;86;21129;-86
2021/06/15 02:25:53;;;;;;;13.22;5.35;;;;;;;17.87;100.00;100360.13;1636943;86;21343;-85
2021/06/15 02:28:20;;;;;;;16.97;5.78;;;;;;;17.88;100.00;100358.31;1664608;85;21238;-85
2021/06/15 02:30:47;;;;;;;16.87;5.90;;;;;;;17.87;100.00;100360.64;1633466;86;21152;-86
2021/06/15 02:33:23;;;;;;;13.28;6.15;;;;;;;17.89;100.00;100363.60;1654461;85;21585;-86
2021/06/15 02:36:02;;;;;;;10.50;5.45;;;;;;;17.90;100.00;100355.87;1663651;84;21191;-85
2021/06/15 02:38:35;;;;;;;22.07;6.35;;;;;;;17.94;100.00;100359.72;1657988;85;20961;-87
2021/06/15 02:41:06;;;;;;;16.97;6.53;;;;;;;17.95;100.00;100357.38;1660918;86;20946;-87
2021/06/15 02:43:32;;;;;;;12.75;6.05;;;;;;;17.95;100.00;100360.94;1665355;86;21167;-88
2021/06/15 02:45:59;;;;;;;11.55;6.67;;;;;;;17.97;100.00;100359.48;1663771;83;21078;-87
2021/06/15 02:48:31;;;;;;;18.75;5.87;;;;;;;17.97;100.00;100357.62;1653933;83;21196;-88
2021/06/15 02:50:58;;;;;;;16.60;6.03;;;;;;;17.99;100.00;100357.53;1677314;85;21033;-86
2021/06/15 02:53:33;;;;;;;14.20;6.17;;;;;;;18.03;100.00;100368.09;1672275;85;21518;-86
2021/06/15 02:56:07;;;;;;;18.42;5.85;;;;;;;18.09;100.00;100376.75;1655942;85;21164;-84
2021/06/15 02:58:35;;;;;;;16.40;6.12;;;;;;;18.14;100.00;100379.98;1666632;85;21021;-86
2021/06/15 03:01:02;;;;;;;11.50;6.30;;;;;;;18.18;100.00;100381.48;1666103;84;21017;-85
2021/06/15 03:03:29;;;;;;;16.67;6.40;;;;;;;18.24;100.00;100377.47;1668585;84;20993;-86
2021/06/15 03:05:55;;;;;;;11.25;5.97;;;;;;;18.28;100.00;100381.20;1658252;85;21044;-86
2021/06/15 03:08:24;;;;;;;32.83;6.30;;;;;;;18.33;100.00;100384.45;1657121;85;21959;-86
2021/06/15 03:10:51;;;;;;;17.50;5.37;;;;;;;18.40;100.00;100388.05;1653427;85;21011;-84
2021/06/15 03:13:24;;;;;;;20.37;5.80;;;;;;;18.43;100.00;100385.11;1652975;86;21045;-84
2021/06/15 03:15:53;;;;;;;10.38;6.00;;;;;;;18.49;100.00;100390.58;1638247;86;20998;-85
2021/06/15 03:18:26;;;;;;;21.40;5.95;;;;;;;18.52;100.00;100398.02;1662026;85;21999;-85
2021/06/15 03:20:56;;;;;;;23.18;5.90;;;;;;;18.55;100.00;100397.78;1662467;84;21141;-85
2021/06/15 03:24:02;;;;;;;15.78;6.05;;;;;;;18.57;100.00;100389.03;1653456;86;21097;-85
2021/06/15 03:26:55;;;;;;;16.15;5.78;;;;;;;18.61;100.00;100390.52;1659384;85;21189;-85
2021/06/15 03:29:24;;;;;;;14.98;6.67;;;;;;;18.69;100.00;100398.61;1637311;86;21137;-85
2021/06/15 03:31:53;;;;;;;15.65;6.60;;;;;;;18.76;100.00;100397.16;1634549;85;21094;-85
2021/06/15 03:34:23;;;;;;;12.43;6.45;;;;;;;18.83;100.00;100394.34;1651372;86;21204;-85
2021/06/15 03:36:50;;;;;;;13.03;5.53;;;;;;;18.88;100.00;100400.28;1654195;85;21029;-86
2021/06/15 03:39:20;;;;;;;10.85;5.92;;;;;;;18.93;100.00;100391.80;1675308;84;21092;-86
2021/06/15 03:41:51;;;;;;;25.70;6.05;;;;;;;18.99;100.00;100397.30;1662992;85;21470;-84
2021/06/15 03:44:19;;;;;;;12.33;5.53;;;;;;;19.02;100.00;100395.70;1663841;85;21583;-84
2021/06/15 03:46:47;;;;;;;15.80;5.58;;;;;;;19.01;100.00;100395.32;1666381;84;21772;-86
2021/06/15 03:49:15;;;;;;;16.25;5.60;;;;;;;19.02;100.00;100396.58;1616860;85;21025;-85
2021/06/15 03:51:49;;;;;;;9.78;5.78;;;;;;;19.04;100.00;100392.37;1640320;83;21137;-87
2021/06/15 03:54:15;;;;;;;13.60;5.83;;;;;;;19.06;100.00;100395.83;1653868;85;21049;-85
2021/06/15 03:56:45;;;;;;;21.75;6.50;;;;;;;19.05;100.00;100394.09;1656513;85;21145;-85
2021/06/15 03:59:16;;;;;;;22.58;6.50;;;;;;;19.07;100.00;100387.20;1654179;84;21161;-85
2021/06/15 04:01:43;;;;;;;14.28;6.03;;;;;;;19.11;100.00;100381.39;1662600;84;35765;-85
2021/06/15 04:04:15;;;;;;;26.02;6.22;;;;;;;19.14;100.00;100374.87;1655018;85;21073;-84
2021/06/15 04:06:49;;;;;;;18.37;6.80;;;;;;;19.17;100.00;100377.34;1665421;85;21123;-84
2021/06/15 04:09:15;;;;;;;18.77;6.33;;;;;;;19.23;100.00;100377.36;1646170;85;21076;-84
2021/06/15 04:11:41;;;;;;;20.60;5.80;;;;;;;19.26;100.00;100374.41;1667985;84;21028;-84
2021/06/15 04:14:11;;;;;;;21.15;6.03;;;;;;;19.28;100.00;100369.72;1670829;85;21115;-85
2021/06/15 04:16:39;;;;;;;13.53;5.42;;;;;;;19.30;100.00;100371.34;1664603;85;21164;-85
2021/06/15 04:19:08;;;;;;;12.15;5.80;;;;;;;19.36;100.00;100366.40;1664360;85;21681;-85
2021/06/15 04:21:34;;;;;;;12.80;6.00;;;;;;;19.39;100.00;100355.28;1663837;85;21102;-86
2021/06/15 04:24:02;;;;;;;10.80;5.97;;;;;;;19.41;100.00;100356.02;1659381;85;21147;-86
2021/06/15 04:26:33;;;;;;;19.75;6.12;;;;;;;19.43;100.00;100350.85;1681247;84;21042;-86
2021/06/15 04:28:59;;;;;;;17.95;6.20;;;;;;;19.44;100.00;100355.30;1661333;84;21139;-85
2021/06/15 04:31:25;;;;;;;16.17;6.12;;;;;;;19.42;100.00;100345.52;1667427;84;21085;-85
2021/06/15 04:33:55;;;;;;;11.30;5.80;;;;;;;19.41;100.00;100346.03;1647136;85;20985;-85
2021/06/15 04:36:22;;;;;;;18.65;6.83;;;;;;;19.42;100.00;100340.97;1659886;84;21201;-85
2021/06/15 04:38:56;;;;;;;11.10;6.05;;;;;;;19.44;100.00;100336.75;1665507;84;21033;-85
2021/06/15 04:41:39;;;;;;;18.77;9.95;;;;;;;19.45;100.00;100346.16;1662410;85;21184;-86
2021/06/15 04:44:09;;;;;;;21.82;14.70;;;;;;;19.42;100.00;100338.25;1657087;85;21104;-85
2021/06/15 04:46:50;;;;;;;14.73;9.88;;;;;;;19.38;100.00;100340.84;1646227;85;21048;-86
2021/06/15 04:49:34;;;;;;;19.20;7.83;;;;;;;19.38;100.00;100347.64;1661618;84;22008;-85
2021/06/15 04:52:03;;;;;;;12.73;7.47;;;;;;;19.40;100.00;100335.27;1656405;85;21782;-85
2021/06/15 04:54:36;;;;;;;13.05;7.60;;;;;;;19.41;100.00;100340.59;1661415;85;21072;-87
2021/06/15 04:57:07;;;;;;;12.65;7.22;;;;;;;19.42;100.00;100349.13;1660347;84;21144;-86
2021/06/15 04:59:34;;;;;;;14.10;7.22;;;;;;;19.42;100.00;100349.60;1669039;84;21065;-86
2021/06/15 05:02:00;;;;;;;20.30;6.70;;;;;;;19.46;100.00;100360.12;1662172;84;39536;-86
2021/06/15 05:04:28;;;;;;;16.57;6.65;;;;;;;19.49;100.00;100345.44;1661517;85;21061;-86
2021/06/15 05:06:55;;;;;;;15.35;7.42;;;;;;;19.55;100.00;100357.65;1669837;84;21041;-86
2021/06/15 05:09:25;;;;;;;18.82;7.50;;;;;;;19.62;100.00;100362.98;1664160;85;20966;-86
2021/06/15 05:11:53;;;;;;;16.25;8.50;;;;;;;19.65;100.00;100365.46;1663219;85;21172;-85
2021/06/15 05:14:20;;;;;;;21.37;8.35;;;;;;;19.69;99.86;100375.09;1660642;84;21731;-87
2021/06/15 05:16:48;;;;;;;17.20;7.45;;;;;;;19.71;99.51;100367.68;1655745;85;21156;-86
2021/06/15 05:19:15;;;;;;;16.10;7.03;;;;;;;19.74;99.32;100376.95;1653161;85;21478;-88
2021/06/15 05:21:55;;;;;;;16.85;8.25;;;;;;;19.78;99.20;100377.58;1652240;86;21152;-87
2021/06/15 05:24:49;;;;;;;18.82;6.70;;;;;;;19.81;99.25;100379.20;1658419;86;21113;-87
2021/06/15 05:27:22;;;;;;;25.90;7.00;;;;;;;19.87;99.18;100381.42;1647576;85;21158;-87
2021/06/15 05:29:56;;;;;;;18.35;5.92;;;;;;;19.93;98.90;100390.47;1666310;85;21071;-87
2021/06/15 05:32:28;;;;;;;21.23;6.35;;;;;;;20.00;98.78;100393.06;1633936;85;21348;-87
2021/06/15 05:34:55;;;;;;;10.55;5.78;;;;;;;20.12;98.26;100390.35;1653406;85;21112;-87
2021/06/15 05:37:23;;;;;;;11.20;5.37;;;;;;;20.19;97.71;100401.09;1648835;85;21096;-87
2021/06/15 05:39:50;;;;;;;11.30;4.72;;;;;;;20.24;96.36;100404.33;1638225;87;22990;-87
2021/06/15 05:42:19;;;;;;;8.38;4.70;;;;;;;20.26;95.69;100396.91;1620989;87;21228;-86
2021/06/15 05:44:46;;;;;;;11.45;4.28;;;;;;;20.31;94.42;100394.66;1655966;86;21601;-86
2021/06/15 05:47:13;;;;;;;10.43;4.50;;;;;;;20.37;93.20;100401.95;1662816;85;21506;-86
2021/06/15 05:49:39;;;;;;;8.55;4.20;;;;;;;20.40;92.08;100407.14;1658246;84;21123;-86
2021/06/15 05:52:08;;;;;;;11.15;4.42;;;;;;;20.45;91.96;100404.92;1656832;85;21956;-88
2021/06/15 05:54:35;;;;;;;11.68;4.10;;;;;;;20.52;91.05;100407.98;1654960;85;21121;-86
2021/06/15 05:57:02;;;;;;;13.85;5.12;;;;;;;20.57;90.11;100413.94;1661738;85;21145;-85
2021/06/15 05:59:29;;;;;;;13.85;4.70;;;;;;;20.66;89.90;100408.19;1650137;85;21136;-87
2021/06/15 06:01:55;;;;;;;10.32;4.47;;;;;;;20.73;88.82;100418.45;1654956;84;57178;-86
2021/06/15 06:04:28;;;;;;;11.08;4.67;;;;;;;20.81;87.75;100416.48;1658733;85;21116;-87
2021/06/15 06:09:43;;;;;;;13.03;4.62;;;;;;;20.92;86.53;100416.09;1656095;85;21070;-86
2021/06/15 06:12:09;;;;;;;8.08;3.92;;;;;;;20.89;86.34;100419.45;1660800;85;21427;-86
2021/06/15 06:14:36;;;;;;;11.28;4.47;;;;;;;20.87;86.45;100414.59;1658571;85;20998;-87
2021/06/15 06:17:04;;;;;;;13.93;4.25;;;;;;;20.87;86.06;100403.70;1659971;84;21420;-86
2021/06/15 06:19:30;;;;;;;13.62;4.30;;;;;;;20.85;85.49;100408.41;1659265;85;21014;-86
2021/06/15 06:21:57;;;;;;;6.58;4.03;;;;;;;20.88;85.64;100402.70;1661111;85;21097;-87
2021/06/15 06:24:23;;;;;;;6.85;4.05;;;;;;;20.91;85.48;100400.74;1660605;84;21836;-89
2021/06/15 06:26:51;;;;;;;7.87;4.10;;;;;;;20.91;85.55;100401.59;1659171;85;21058;-86
2021/06/15 06:29:19;;;;;;;7.45;4.08;;;;;;;20.88;84.47;100403.22;1654663;85;21156;-83
2021/06/15 06:31:48;;;;;;;9.83;4.67;;;;;;;20.83;84.39;100389.98;1658626;85;21165;-86
2021/06/15 06:34:14;;;;;;;10.15;4.53;;;;;;;20.81;84.73;100394.69;1652065;85;21272;-88
2021/06/15 06:36:41;;;;;;;7.10;4.70;;;;;;;20.83;84.94;100400.03;1658562;85;21251;-87
2021/06/15 06:39:09;;;;;;;9.13;4.40;;;;;;;20.85;85.08;100396.16;1654501;85;21116;-86
2021/06/15 06:41:37;;;;;;;8.80;4.25;;;;;;;20.91;84.90;100400.74;1663438;84;21649;-85
2021/06/15 06:44:04;;;;;;;8.30;4.25;;;;;;;20.95;84.46;100398.97;1661298;84;20999;-87
2021/06/15 06:46:32;;;;;;;10.35;4.42;;;;;;;21.01;84.24;100400.31;1658395;84;21100;-87
2021/06/15 06:48:59;;;;;;;10.35;5.42;;;;;;;21.10;84.05;100404.97;1660104;84;21105;-86
2021/06/15 06:51:26;;;;;;;12.33;5.20;;;;;;;21.17;84.01;100410.28;1657983;84;21164;-87
2021/06/15 06:53:53;;;;;;;11.00;4.30;;;;;;;21.23;83.77;100410.75;1664711;84;21959;-87
2021/06/15 06:56:20;;;;;;;13.78;5.10;;;;;;;21.30;83.60;100416.03;1670661;84;21220;-88
2021/06/15 06:58:47;;;;;;;9.18;4.05;;;;;;;21.35;83.08;100398.80;1664644;84;20981;-86
2021/06/15 07:01:18;;;;;;;10.10;4.83;;;;;;;21.43;83.36;100401.72;1660517;85;21481;-86
2021/06/15 07:03:46;;;;;;;11.85;5.00;;;;;;;21.49;83.22;100400.33;1663443;83;21136;-86
2021/06/15 07:06:12;;;;;;;12.93;5.22;;;;;;;21.53;82.86;100404.99;1665673;84;21521;-87
2021/06/15 07:08:54;;;;;;;18.40;6.20;;;;;;;21.59;82.44;100405.84;1660630;84;21100;-86
2021/06/15 07:11:21;;;;;;;18.07;5.85;;;;;;;21.66;81.92;100394.78;1662266;84;21479;-86
2021/06/15 07:13:52;;;;;;;19.85;6.17;;;;;;;21.72;81.24;100390.14;1662215;84;20997;-88
2021/06/15 07:16:19;;;;;;;15.53;5.87;;;;;;;21.81;81.14;100382.16;1664480;84;21038;-87
2021/06/15 07:18:46;;;;;;;18.65;5.70;;;;;;;21.90;80.51;100386.79;1659547;84;21123;-86
2021/06/15 07:21:13;;;;;;;15.40;4.53;;;;;;;21.97;80.41;100407.06;1666416;84;21112;-88
2021/06/15 07:23:40;;;;;;;11.18;4.67;;;;;;;22.03;79.89;100420.19;1668373;84;21185;-87
2021/06/15 07:26:10;;;;;;;10.25;5.00;;;;;;;22.07;79.74;100443.11;1667387;84;21729;-88
2021/06/15 07:28:38;;;;;;;12.88;4.47;;;;;;;22.09;79.50;100449.30;1669110;84;21532;-88
2021/06/15 07:31:09;;;;;;;13.88;4.28;;;;;;;22.09;79.29;100438.38;1669404;83;21123;-87
2021/06/15 07:33:33;;;;;;;9.18;4.12;;;;;;;22.06;78.94;100431.83;1663762;84;21150;-87
2021/06/15 07:36:01;;;;;;;10.58;4.15;;;;;;;21.99;79.29;100413.77;1664447;84;21152;-88
2021/06/15 07:38:27;;;;;;;7.85;3.60;;;;;;;21.94;79.33;100399.67;1656566;84;21037;-87
2021/06/15 07:40:55;;;;;;;8.13;3.80;;;;;;;21.85;79.68;100405.45;1652686;85;21723;-85
2021/06/15 07:43:22;;;;;;;4.67;3.67;;;;;;;21.75;80.59;100404.88;1652309;85;21772;-85
2021/06/15 07:45:49;;;;;;;5.08;3.70;;;;;;;21.67;81.66;100410.15;1651235;85;21139;-86
2021/06/15 07:48:15;;;;;;;7.12;3.75;;;;;;;21.66;81.82;100400.23;1654938;85;21508;-85
2021/06/15 07:50:44;;;;;;;7.92;3.60;;;;;;;21.72;81.69;100399.69;1657883;85;20984;-86
2021/06/15 07:53:11;;;;;;;6.50;3.62;;;;;;;21.80;81.79;100399.53;1653165;85;21011;-86
2021/06/15 07:55:38;;;;;;;8.80;4.17;;;;;;;21.88;81.86;100391.52;1653796;85;21119;-86
2021/06/15 07:58:05;;;;;;;5.15;3.30;;;;;;;21.90;80.49;100390.88;1655110;85;21029;-86
2021/06/15 08:00:33;;;;;;;8.80;3.77;;;;;;;21.89;80.52;100390.03;1653228;85;20958;-86
2021/06/15 08:03:00;;;;;;;24.07;7.25;;;;;;;21.91;80.72;100384.42;1658965;85;20958;-85
2021/06/15 08:05:27;;;;;;;12.88;4.65;;;;;;;21.94;80.36;100382.78;1660026;83;21073;-86
2021/06/15 08:07:54;;;;;;;25.23;6.72;;;;;;;21.96;79.88;100379.41;1655015;83;21035;-87
2021/06/15 08:10:21;;;;;;;13.55;5.67;;;;;;;21.94;79.56;100370.50;1654154;85;21096;-85
2021/06/15 08:12:48;;;;;;;11.48;4.80;;;;;;;21.91;80.01;100348.95;1656197;83;21067;-86
2021/06/15 08:15:19;;;;;;;13.00;4.53;;;;;;;21.88;80.66;100339.19;1653055;85;21060;-87
2021/06/15 08:17:46;;;;;;;7.78;4.40;;;;;;;21.81;81.06;100322.98;1641540;85;21103;-85
2021/06/15 08:20:13;;;;;;;11.22;4.75;;;;;;;21.77;81.63;100327.00;1656178;86;21364;-87
2021/06/15 08:22:40;;;;;;;8.28;4.90;;;;;;;21.69;81.99;100317.28;1656627;85;21069;-87
2021/06/15 08:25:08;;;;;;;12.25;5.42;;;;;;;21.61;82.39;100321.50;1653971;85;21030;-92
2021/06/15 08:27:37;;;;;;;13.45;6.05;;;;;;;21.54;83.01;100316.72;1653067;85;21622;-88
2021/06/15 08:30:07;;;;;;;11.30;6.62;;;;;;;21.46;83.73;100306.52;1654700;85;21034;-87
2021/06/15 08:32:34;;;;;;;13.85;7.55;;;;;;;21.41;84.82;100312.38;1648416;85;21777;-88
2021/06/15 08:35:03;;;;;;;13.93;8.33;;;;;;;21.39;85.72;100312.13;1653364;85;21019;-87
2021/06/15 08:37:30;;;;;;;12.53;7.97;;;;;;;21.35;86.37;100306.10;1650837;85;21053;-87
2021/06/15 08:39:59;;;;;;;11.55;7.72;;;;;;;21.34;86.55;100308.47;1662057;84;21029;-87
2021/06/15 08:42:26;;;;;;;11.78;8.08;;;;;;;21.31;86.80;100301.41;1660939;84;21164;-85
2021/06/15 08:44:52;;;;;;;12.53;7.08;;;;;;;21.35;86.86;100287.50;1667469;84;21092;-88
2021/06/15 08:47:34;;;;;;;16.97;6.60;;;;;;;21.39;87.33;100295.28;1665421;84;21093;-88
2021/06/15 08:50:01;;;;;;;10.23;5.87;;;;;;;21.45;87.37;100299.34;1668930;84;21564;-87
2021/06/15 08:52:27;;;;;;;11.78;6.00;;;;;;;21.49;87.05;100310.81;1661849;84;21447;-87
2021/06/15 08:55:01;;;;;;;9.85;5.72;;;;;;;21.52;86.21;100305.97;1665956;84;21006;-88
2021/06/15 08:57:30;;;;;;;6.72;5.03;;;;;;;21.57;86.53;100305.05;1667255;84;21138;-88
2021/06/15 09:00:00;;;;;;;9.43;5.92;;;;;;;21.68;86.80;100310.95;1666622;84;21025;-88
2021/06/15 09:02:26;;;;;;;9.93;5.37;;;;;;;21.77;87.04;100309.75;1662328;84;36649;-86
2021/06/15 09:04:52;;;;;;;10.43;5.65;;;;;;;21.83;87.34;100304.61;1663455;84;21144;-87
2021/06/15 09:07:20;;;;;;;9.58;4.87;;;;;;;21.88;87.68;100309.17;1663812;84;21006;-86
2021/06/15 09:09:48;;;;;;;9.75;6.20;;;;;;;21.95;87.68;100293.60;1665859;84;21494;-87
2021/06/15 09:12:17;;;;;;;9.08;5.08;;;;;;;22.01;87.88;100287.09;1662001;84;21017;-86
2021/06/15 09:14:55;;;;;;;9.85;5.50;;;;;;;22.11;88.01;100293.06;1665535;84;32521;-87
2021/06/15 09:17:36;;;;;;;7.42;5.08;;;;;;;22.19;87.69;100286.38;1669710;84;22290;-86
2021/06/15 09:20:13;;;;;;;10.48;6.05;;;;;;;22.26;87.71;100283.47;1665981;84;21450;-86
2021/06/15 09:22:41;;;;;;;10.85;5.25;;;;;;;22.42;87.40;100280.66;1661030;84;21793;-87
2021/06/15 09:25:14;;;;;;;13.68;5.30;;;;;;;22.59;85.76;100274.53;1661923;84;21135;-86
2021/06/15 09:27:41;;;;;;;6.55;4.70;;;;;;;22.74;83.86;100276.83;1667519;84;21078;-87
2021/06/15 09:30:11;;;;;;;6.72;5.03;;;;;;;22.84;80.96;100264.01;1661456;84;20989;-85
2021/06/15 09:32:44;;;;;;;9.58;5.47;;;;;;;22.95;80.41;100266.23;1662484;84;22439;-88
2021/06/15 09:35:28;;;;;;;11.45;5.40;;;;;;;23.05;78.63;100262.97;1663153;84;21151;-86
2021/06/15 09:37:56;;;;;;;10.25;5.00;;;;;;;23.09;78.70;100242.52;1655506;84;22420;-84
2021/06/15 09:40:30;;;;;;;8.33;4.87;;;;;;;23.16;79.13;100249.63;1665968;84;21124;-86
2021/06/15 09:43:05;;;;;;;8.60;4.95;;;;;;;23.26;79.08;100240.06;1663779;84;21457;-85
2021/06/15 09:45:40;;;;;;;;;;;;;;;23.36;78.80;100235.44;1668068;84;21194;-86
2021/06/15 09:48:29;;;;;;;;;;;;;;;23.44;77.45;100249.73;1669202;84;21215;-87
2021/06/15 09:51:00;;;;;;;8.23;4.42;;;;;;;23.50;76.87;100241.41;1659137;84;20551;-88
2021/06/15 09:53:37;;;;;;;6.08;3.98;;;;;;;23.51;76.31;100235.80;1662432;85;21096;-86
2021/06/15 09:56:09;;;;;;;5.42;3.65;;;;;;;23.56;76.78;100243.56;1665729;84;22221;-81
2021/06/15 09:58:48;;;;;;;6.40;4.30;;;;;;;23.59;76.65;100237.78;1665024;84;21155;-84
2021/06/15 10:01:39;;;;;;;14.47;7.25;;;;;;;23.63;76.81;100236.47;1660208;84;40796;-86
2021/06/15 10:04:21;;;;;;;9.70;8.13;;;;;;;23.67;77.17;100231.03;1630279;85;20994;-85
2021/06/15 10:06:53;;;;;;;15.98;8.95;;;;;;;23.82;77.49;100230.53;1635875;85;21900;-85
2021/06/15 10:09:29;;;;;;;20.40;11.90;;;;;;;23.96;77.27;100230.52;1657271;85;20939;-88
2021/06/15 10:12:04;;;;;;;13.70;9.08;;;;;;;24.05;76.03;100230.13;1657003;85;21026;-85
2021/06/15 10:14:31;;;;;;;16.55;11.57;;;;;;;24.09;76.05;100226.06;1659678;85;21554;-88
2021/06/15 10:16:59;;;;;;;10.38;8.25;;;;;;;24.15;76.60;100204.89;1654569;86;20958;-88
2021/06/15 10:19:26;;;;;;;16.50;8.13;;;;;;;24.27;76.42;100220.09;1655048;83;20997;-88
2021/06/15 10:21:53;;;;;;;13.88;6.90;;;;;;;24.41;75.85;100206.84;1661271;84;21049;-88
2021/06/15 10:24:22;;;;;;;18.95;6.65;;;;;;;24.51;75.20;100204.89;1658322;86;21075;-91
2021/06/15 10:26:52;;;;;;;20.43;6.78;;;;;;;24.56;74.22;100205.27;1647480;86;21164;-91
2021/06/15 10:29:19;;;;;;;12.68;6.87;;;;;;;24.62;73.93;100201.05;1658850;84;21052;-91
2021/06/15 10:31:47;;;;;;;12.47;6.28;;;;;;;24.69;72.57;100197.16;1655220;85;21628;-92
2021/06/15 10:34:14;;;;;;;26.57;9.28;;;;;;;24.72;71.89;100183.13;1652631;85;21034;-90
2021/06/15 10:36:47;;;;;;;22.90;6.85;;;;;;;24.73;72.76;100178.84;1649174;85;21165;-91
2021/06/15 10:39:21;;;;;;;18.00;6.85;;;;;;;24.77;71.79;100178.05;1655103;83;21135;-91
2021/06/15 10:41:48;;;;;;;19.40;7.40;;;;;;;24.78;71.34;100172.92;1650703;85;26592;-90
2021/06/15 10:44:14;;;;;;;13.98;7.50;;;;;;;24.80;71.03;100167.29;1609420;86;21164;-89
2021/06/15 10:46:42;;;;;;;17.15;7.40;;;;;;;24.85;70.76;100164.39;1644462;85;21039;-89
2021/06/15 10:49:14;;;;;;;12.07;6.92;;;;;;;24.97;70.41;100170.98;1587833;87;21090;-90
2021/06/15 10:51:44;;;;;;;10.08;7.47;;;;;;;25.07;70.23;100157.16;1649018;85;21227;-88
2021/06/15 10:54:38;;;;;;;9.75;7.30;;;;;;;25.17;70.17;100156.52;1651272;84;20974;-90
2021/06/15 10:57:28;;;;;;;19.12;7.72;;;;;;;25.25;69.72;100157.06;1608566;87;22180;-89
2021/06/15 11:00:09;;;;;;;13.30;7.87;;;;;;;25.28;70.18;100127.44;1648590;85;21037;-90
2021/06/15 11:02:36;;;;;;;15.20;8.30;;;;;;;25.35;70.29;100122.65;1649878;84;97999;-86
2021/06/15 11:05:40;;;;;;;10.55;8.00;;;;;;;25.38;70.02;100114.95;1630787;85;21999;-88
2021/06/15 11:08:27;;;;;;;11.47;8.30;;;;;;;25.33;69.41;100120.09;1651093;82;21084;-85
2021/06/15 11:11:05;;;;;;;13.25;5.53;;;;;;;25.25;68.85;100129.64;1651677;84;21044;-84
2021/06/15 11:13:54;;;;;;;7.08;5.15;;;;;;;25.02;58.00;100224.33;1650947;85;21082;-85
2021/06/15 11:16:33;;;;;;;17.15;5.97;;;;;;;24.39;58.45;100126.70;1649920;85;21665;-86
2021/06/15 11:19:14;;;;;;;5.97;5.33;;;;;;;23.35;59.90;100113.38;1646771;86;21209;-85
2021/06/15 11:21:52;;;;;;;16.15;6.58;;;;;;;22.64;59.43;100134.78;1651955;82;21132;-86
2021/06/15 11:24:23;;;;;;;15.15;9.00;;;;;;;22.21;63.41;100121.94;1653473;84;21344;-85
2021/06/15 11:27:24;;;;;;;19.32;10.72;;;;;;;21.96;70.69;100144.72;1651461;85;20990;-80
2021/06/15 11:29:53;;;;;;;16.30;10.70;;;;;;;21.82;73.02;100123.33;1652613;85;21192;-80
2021/06/15 11:32:34;;;;;;;16.17;10.18;;;;;;;21.71;75.48;100089.70;1651752;85;21177;-81
2021/06/15 11:35:08;;;;;;;15.00;10.28;;;;;;;21.74;75.97;100100.33;1632740;85;21372;-81